Saguaro Natl Park, Arizona
Current Conditions -  °F | °C
As of 12:58 AM on Tuesday 21 Oct 2014 (Local Time) from KDMA Reporting Station
Clear Clear  
Wind Chill: 65°   Ceiling: Unl
Heat Index: 65°   Visibility: 10mi
Dew Point: 50°   Wind: 9mph
Humidity: 58%   Direction: 130°SE
Pressure: 29.94"   Gusts: NA
Location:  32.2°N, 110.63°W
Report Text: KDMA 210758Z AUTO 13008KT 10SM CLR 19/10 A2994 RMK AO2 SLP102 T01860101 $
Loading
Personal Weather Stations






























Interactive Weather Map
Tropical Storm Tracking
New forecast layout! Learn more

10-Day Weather Forecast

Advertisements
Track Severe Weather on mobile